createdAt,value
2022-08-08T00:00:56.243Z,18.60
2022-08-08T00:03:31.318Z,18.50
2022-08-08T00:06:34.911Z,18.50
2022-08-08T00:09:33.243Z,18.40
2022-08-08T00:12:29.879Z,18.40
2022-08-08T00:15:24.468Z,18.40
2022-08-08T00:18:49.820Z,18.40
2022-08-08T00:21:44.131Z,18.30
2022-08-08T00:24:37.801Z,18.30
2022-08-08T00:27:32.897Z,18.40
2022-08-08T00:30:24.014Z,18.20
2022-08-08T00:33:15.454Z,18.20
2022-08-08T00:36:17.336Z,18.10
2022-08-08T00:39:36.250Z,18.10
2022-08-08T00:42:47.893Z,18.10
2022-08-08T00:45:38.734Z,18.00
2022-08-08T00:48:59.488Z,18.00
2022-08-08T00:52:04.950Z,18.00
2022-08-08T00:55:22.073Z,17.90
2022-08-08T00:58:30.739Z,17.90
2022-08-08T01:01:29.335Z,17.80
2022-08-08T01:05:04.439Z,17.80
2022-08-08T01:08:28.882Z,17.80
2022-08-08T01:11:32.699Z,17.70
2022-08-08T01:15:00.474Z,17.70
2022-08-08T01:18:53.183Z,17.70
2022-08-08T01:22:10.421Z,17.70
2022-08-08T01:25:16.923Z,17.60
2022-08-08T01:28:18.066Z,17.60
2022-08-08T01:32:06.368Z,17.60
2022-08-08T01:34:55.075Z,17.60
2022-08-08T01:38:19.075Z,17.60
2022-08-08T01:41:24.174Z,17.60
2022-08-08T01:44:28.051Z,17.50
2022-08-08T01:48:11.578Z,17.50
2022-08-08T01:50:55.195Z,17.50
2022-08-08T01:55:26.482Z,17.50
2022-08-08T01:57:19.555Z,17.50
2022-08-08T02:00:19.317Z,17.40
2022-08-08T02:03:56.090Z,17.40
2022-08-08T02:06:58.359Z,17.40
2022-08-08T02:10:30.035Z,17.30
2022-08-08T02:13:54.225Z,17.30
2022-08-08T02:16:53.884Z,17.30
2022-08-08T02:20:07.311Z,17.30
2022-08-08T02:23:16.551Z,17.20
2022-08-08T02:26:15.914Z,17.20
2022-08-08T02:29:31.437Z,17.20
2022-08-08T02:32:46.260Z,17.20
2022-08-08T02:36:05.137Z,17.10
2022-08-08T02:38:56.317Z,17.20
2022-08-08T02:42:13.881Z,17.10
2022-08-08T02:45:21.230Z,17.20
2022-08-08T02:48:37.262Z,17.20
2022-08-08T02:51:56.481Z,17.10
2022-08-08T02:54:51.602Z,17.10
2022-08-08T02:58:19.982Z,17.10
2022-08-08T03:01:50.077Z,17.10
2022-08-08T03:05:10.563Z,17.10
2022-08-08T03:08:30.484Z,17.00
2022-08-08T03:12:01.144Z,17.00
2022-08-08T03:16:00.050Z,17.00
2022-08-08T03:18:07.518Z,17.00
2022-08-08T03:20:58.288Z,17.00
2022-08-08T03:23:57.292Z,17.00
2022-08-08T03:26:57.346Z,17.00
2022-08-08T03:29:55.362Z,17.00
2022-08-08T03:33:07.693Z,17.00
2022-08-08T03:36:12.692Z,17.00
2022-08-08T03:39:14.753Z,16.90
2022-08-08T03:42:28.706Z,17.00
2022-08-08T03:46:07.357Z,17.00
2022-08-08T03:49:09.004Z,16.90
2022-08-08T03:51:47.029Z,16.90
2022-08-08T03:55:02.303Z,16.90
2022-08-08T03:58:32.068Z,16.80
2022-08-08T04:01:24.363Z,16.80
2022-08-08T04:04:22.990Z,16.80
2022-08-08T04:07:17.877Z,16.80
2022-08-08T04:10:10.724Z,16.70
2022-08-08T04:13:00.231Z,16.70
2022-08-08T04:15:54.725Z,16.70
2022-08-08T04:18:55.818Z,16.70
2022-08-08T04:21:45.721Z,16.70
2022-08-08T04:24:33.950Z,16.60
2022-08-08T04:28:02.418Z,16.60
2022-08-08T04:30:36.701Z,16.60
2022-08-08T04:33:38.526Z,16.60
2022-08-08T04:36:31.131Z,16.60
2022-08-08T04:40:04.048Z,16.60
2022-08-08T04:42:31.851Z,16.60
2022-08-08T04:45:20.495Z,16.60
2022-08-08T04:48:09.978Z,16.60
2022-08-08T04:51:00.174Z,16.60
2022-08-08T04:54:39.391Z,16.70
2022-08-08T04:57:00.398Z,16.70
2022-08-08T04:59:48.090Z,16.70
2022-08-08T05:02:35.852Z,16.70
2022-08-08T05:05:45.190Z,16.70
2022-08-08T05:08:32.382Z,16.70
2022-08-08T05:11:24.033Z,16.70
2022-08-08T05:14:15.537Z,16.70
2022-08-08T05:17:10.775Z,16.70
2022-08-08T05:20:12.277Z,16.70
2022-08-08T05:23:02.629Z,16.80
2022-08-08T05:25:55.323Z,16.80
2022-08-08T05:28:56.870Z,16.80
2022-08-08T05:32:04.412Z,16.90
2022-08-08T05:34:54.662Z,17.00
2022-08-08T05:37:52.341Z,17.10
2022-08-08T05:41:06.010Z,17.10
2022-08-08T05:44:04.853Z,17.30
2022-08-08T05:47:02.906Z,17.50
2022-08-08T05:49:53.901Z,17.60
2022-08-08T05:52:46.671Z,17.70
2022-08-08T05:56:08.003Z,17.90
2022-08-08T05:58:57.878Z,18.00
2022-08-08T06:01:59.907Z,18.20
2022-08-08T06:04:56.039Z,18.30
2022-08-08T06:07:48.825Z,18.50
2022-08-08T06:10:41.872Z,18.60
2022-08-08T06:13:36.385Z,18.80
2022-08-08T06:16:38.207Z,19.00
2022-08-08T06:19:35.223Z,19.10
2022-08-08T06:22:38.289Z,19.30
2022-08-08T06:26:38.156Z,19.40
2022-08-08T06:28:54.642Z,19.70
2022-08-08T06:32:08.991Z,19.80
2022-08-08T06:34:56.366Z,20.00
2022-08-08T06:38:09.410Z,20.10
2022-08-08T06:41:06.693Z,20.30
2022-08-08T06:44:03.058Z,20.40
2022-08-08T06:46:56.371Z,20.60
2022-08-08T06:49:55.723Z,20.70
2022-08-08T06:52:50.262Z,20.80
2022-08-08T06:55:41.808Z,21.00
2022-08-08T06:58:33.101Z,21.10
2022-08-08T07:02:18.076Z,21.20
2022-08-08T07:04:49.744Z,21.40
2022-08-08T07:07:55.461Z,21.60
2022-08-08T07:10:51.486Z,21.70
2022-08-08T07:14:00.832Z,21.80
2022-08-08T07:17:02.785Z,22.00
2022-08-08T07:20:06.605Z,22.10
2022-08-08T07:23:04.685Z,22.20
2022-08-08T07:25:57.600Z,22.40
2022-08-08T07:28:51.983Z,22.50
2022-08-08T07:31:45.421Z,22.70
2022-08-08T07:34:36.505Z,22.80
2022-08-08T07:37:55.913Z,23.00
2022-08-08T07:41:04.235Z,23.10
2022-08-08T07:43:56.614Z,23.20
2022-08-08T07:46:43.998Z,23.20
2022-08-08T07:49:34.865Z,23.30
2022-08-08T07:52:27.127Z,23.20
2022-08-08T07:55:28.527Z,23.30
2022-08-08T07:58:27.288Z,23.50
2022-08-08T08:01:27.184Z,23.60
2022-08-08T08:04:39.960Z,23.60
2022-08-08T08:07:38.949Z,23.70
2022-08-08T08:10:35.651Z,23.70
2022-08-08T08:13:42.737Z,23.90
2022-08-08T08:16:41.632Z,24.10
2022-08-08T08:19:45.607Z,23.30
2022-08-08T08:22:37.048Z,24.30
2022-08-08T08:25:40.745Z,24.30
2022-08-08T08:28:33.037Z,24.30
2022-08-08T08:31:22.615Z,24.70
2022-08-08T08:34:09.837Z,25.00
2022-08-08T08:40:01.046Z,25.70
2022-08-08T08:42:57.557Z,26.00
2022-08-08T08:45:50.819Z,26.00
2022-08-08T08:48:49.527Z,26.30
2022-08-08T08:51:51.421Z,26.60
2022-08-08T08:54:41.739Z,26.90
2022-08-08T08:57:30.460Z,27.10
2022-08-08T09:00:24.816Z,27.20
2022-08-08T09:03:16.254Z,27.40
2022-08-08T09:06:26.135Z,27.50
2022-08-08T09:09:35.267Z,27.50
2022-08-08T09:12:36.679Z,27.40
2022-08-08T09:15:40.810Z,27.30
2022-08-08T09:18:32.259Z,27.20
2022-08-08T09:21:59.113Z,27.00
2022-08-08T09:24:28.248Z,26.90
2022-08-08T09:27:21.018Z,27.00
2022-08-08T09:30:17.934Z,27.00
2022-08-08T09:34:15.443Z,26.80
2022-08-08T09:36:23.672Z,26.70
2022-08-08T09:39:20.300Z,26.80
2022-08-08T09:42:21.178Z,26.70
2022-08-08T09:45:20.698Z,26.30
2022-08-08T09:48:26.957Z,26.20
2022-08-08T09:51:27.440Z,26.30
2022-08-08T09:54:37.302Z,26.50
2022-08-08T09:57:35.001Z,26.40
2022-08-08T10:00:53.067Z,26.50
2022-08-08T10:03:56.178Z,26.70
2022-08-08T10:06:46.832Z,27.00
2022-08-08T10:10:00.759Z,26.90
2022-08-08T10:12:54.407Z,26.70
2022-08-08T10:16:01.134Z,26.50
2022-08-08T10:18:55.285Z,26.50
2022-08-08T10:21:51.167Z,26.50
2022-08-08T10:24:47.249Z,26.50
2022-08-08T10:27:43.439Z,26.30
2022-08-08T10:30:57.338Z,26.30
2022-08-08T10:34:18.891Z,26.20
2022-08-08T10:36:48.735Z,26.20
2022-08-08T10:39:54.554Z,26.10
2022-08-08T10:42:44.974Z,26.10
2022-08-08T10:45:42.902Z,26.10
2022-08-08T10:48:58.577Z,26.00
2022-08-08T10:51:51.448Z,26.00
2022-08-08T10:54:41.347Z,26.30
2022-08-08T10:57:41.446Z,26.50
2022-08-08T11:00:52.606Z,26.60
2022-08-08T11:04:00.413Z,26.60
2022-08-08T11:06:49.603Z,26.70
2022-08-08T11:09:47.357Z,26.90
2022-08-08T11:12:38.357Z,26.80
2022-08-08T11:15:30.950Z,27.00
2022-08-08T11:18:20.632Z,27.20
2022-08-08T11:21:10.260Z,27.30
2022-08-08T11:24:01.951Z,27.50
2022-08-08T11:26:53.859Z,27.80
2022-08-08T11:30:04.096Z,27.40
2022-08-08T11:32:55.303Z,27.40
2022-08-08T11:35:45.416Z,27.30
2022-08-08T11:38:43.702Z,27.40
2022-08-08T11:41:45.107Z,27.60
2022-08-08T11:44:34.326Z,27.60
2022-08-08T11:47:23.378Z,27.80
2022-08-08T11:50:29.701Z,27.50
2022-08-08T11:53:17.440Z,27.60
2022-08-08T11:56:21.348Z,27.80
2022-08-08T11:59:10.794Z,27.50
2022-08-08T12:02:30.512Z,27.60
2022-08-08T12:05:14.554Z,27.50
2022-08-08T12:08:02.677Z,27.60
2022-08-08T12:10:52.978Z,27.70
2022-08-08T12:14:04.167Z,27.80
2022-08-08T12:16:53.367Z,27.90
2022-08-08T12:22:51.129Z,27.80
2022-08-08T12:25:44.881Z,28.00
2022-08-08T12:28:39.747Z,27.90
2022-08-08T12:31:39.082Z,27.90
2022-08-08T12:34:44.831Z,28.00
2022-08-08T12:37:41.541Z,28.10
2022-08-08T12:40:54.490Z,28.00
2022-08-08T12:43:59.440Z,27.90
2022-08-08T12:47:00.165Z,27.70
2022-08-08T12:49:56.524Z,27.60
2022-08-08T12:52:55.740Z,27.40
2022-08-08T12:56:08.493Z,27.50
2022-08-08T12:59:01.416Z,27.50
2022-08-08T13:01:54.662Z,27.50
2022-08-08T13:04:53.419Z,27.70
2022-08-08T13:08:03.848Z,27.90
2022-08-08T13:10:58.342Z,28.00
2022-08-08T13:13:53.690Z,28.10
2022-08-08T13:16:43.937Z,28.00
2022-08-08T13:19:50.045Z,28.10
2022-08-08T13:22:39.179Z,28.10
2022-08-08T13:25:27.171Z,28.00
2022-08-08T13:28:14.143Z,27.90
2022-08-08T13:31:05.855Z,28.00
2022-08-08T13:33:54.511Z,28.00
2022-08-08T13:36:44.602Z,27.90
2022-08-08T13:39:33.433Z,27.90
2022-08-08T13:42:23.132Z,28.10
2022-08-08T13:45:12.829Z,28.20
2022-08-08T13:48:04.157Z,28.30
2022-08-08T13:50:57.780Z,28.40
2022-08-08T13:53:53.281Z,28.40
2022-08-08T13:57:01.531Z,28.50
2022-08-08T13:59:50.272Z,28.50
2022-08-08T14:02:41.246Z,28.40
2022-08-08T14:05:29.711Z,28.20
2022-08-08T14:08:30.470Z,28.10
2022-08-08T14:11:24.991Z,28.00
2022-08-08T14:14:14.087Z,28.00
2022-08-08T14:17:22.095Z,28.10
2022-08-08T14:20:56.746Z,28.00
2022-08-08T14:24:06.944Z,28.10
2022-08-08T14:26:33.677Z,28.20
2022-08-08T14:29:28.065Z,28.10
2022-08-08T14:32:25.133Z,28.10
2022-08-08T14:35:20.345Z,28.20
2022-08-08T14:38:51.630Z,28.40
2022-08-08T14:41:53.489Z,28.50
2022-08-08T14:44:35.248Z,28.50
2022-08-08T14:47:22.970Z,28.50
2022-08-08T14:50:16.359Z,28.50
2022-08-08T14:53:23.914Z,28.40
2022-08-08T14:56:13.170Z,28.30
2022-08-08T14:59:01.127Z,28.10
2022-08-08T15:01:51.680Z,28.00
2022-08-08T15:04:38.578Z,27.90
2022-08-08T15:07:39.115Z,27.80
2022-08-08T15:10:28.914Z,27.80
2022-08-08T15:13:16.173Z,27.70
2022-08-08T15:16:03.913Z,27.80
2022-08-08T15:18:52.981Z,27.80
2022-08-08T15:21:42.892Z,27.80
2022-08-08T15:24:31.544Z,27.80
2022-08-08T15:27:57.861Z,27.70
2022-08-08T15:30:41.034Z,27.60
2022-08-08T15:33:35.742Z,27.50
2022-08-08T15:36:37.404Z,27.40
2022-08-08T15:39:25.707Z,27.40
2022-08-08T15:42:31.499Z,27.40
2022-08-08T15:45:22.908Z,27.40
2022-08-08T15:48:16.092Z,27.30
2022-08-08T15:51:06.391Z,27.30
2022-08-08T15:53:55.194Z,27.30
2022-08-08T15:56:42.633Z,27.30
2022-08-08T16:00:10.970Z,27.30
2022-08-08T16:02:37.564Z,27.30
2022-08-08T16:05:35.519Z,27.40
2022-08-08T16:08:33.427Z,27.40
2022-08-08T16:13:14.556Z,27.30
2022-08-08T16:14:33.322Z,27.30
2022-08-08T16:17:58.097Z,27.20
2022-08-08T16:20:29.284Z,27.20
2022-08-08T16:23:16.968Z,27.10
2022-08-08T16:26:17.381Z,27.00
2022-08-08T16:29:09.606Z,27.00
2022-08-08T16:31:56.893Z,26.90
2022-08-08T16:34:48.217Z,26.90
2022-08-08T16:37:35.903Z,26.90
2022-08-08T16:40:24.086Z,26.90
2022-08-08T16:43:16.791Z,26.80
2022-08-08T16:46:38.872Z,26.90
2022-08-08T16:49:14.170Z,26.90
2022-08-08T16:55:05.800Z,27.00
2022-08-08T16:55:33.888Z,26.90
2022-08-08T16:58:18.675Z,26.80
2022-08-08T17:01:14.948Z,26.70
2022-08-08T17:04:03.559Z,26.50
2022-08-08T17:06:51.390Z,26.50
2022-08-08T17:09:45.209Z,26.40
2022-08-08T17:12:33.367Z,26.50
2022-08-08T17:15:23.695Z,26.40
2022-08-08T17:18:15.907Z,26.40
2022-08-08T17:21:03.289Z,26.30
2022-08-08T17:23:58.159Z,26.20
2022-08-08T17:26:49.481Z,26.10
2022-08-08T17:29:43.348Z,26.00
2022-08-08T17:32:44.512Z,26.00
2022-08-08T17:35:54.289Z,25.90
2022-08-08T17:38:44.242Z,25.90
2022-08-08T17:41:39.150Z,25.80
2022-08-08T17:44:30.373Z,25.80
2022-08-08T17:47:23.651Z,25.80
2022-08-08T17:50:14.635Z,25.80
2022-08-08T17:53:03.006Z,25.70
2022-08-08T17:56:04.662Z,25.70
2022-08-08T17:58:55.257Z,25.60
2022-08-08T18:01:53.861Z,25.50
2022-08-08T18:04:42.558Z,25.50
2022-08-08T18:08:03.414Z,25.40
2022-08-08T18:10:46.400Z,25.30
2022-08-08T18:13:35.050Z,25.30
2022-08-08T18:16:30.974Z,25.20
2022-08-08T18:19:21.500Z,25.10
2022-08-08T18:22:08.209Z,25.00
2022-08-08T18:25:15.201Z,25.00
2022-08-08T18:28:03.642Z,24.90
2022-08-08T18:30:50.815Z,24.80
2022-08-08T18:34:11.746Z,24.70
2022-08-08T18:36:45.637Z,24.70
2022-08-08T18:39:34.800Z,24.70
2022-08-08T18:42:23.848Z,24.70
2022-08-08T18:46:52.370Z,24.60
2022-08-08T18:48:21.541Z,24.60
2022-08-08T18:51:42.049Z,24.60
2022-08-08T18:54:22.849Z,24.50
2022-08-08T18:57:15.561Z,24.50
2022-08-08T19:00:03.921Z,24.40
2022-08-08T19:03:04.146Z,24.40
2022-08-08T19:05:53.726Z,24.30
2022-08-08T19:08:42.264Z,24.20
2022-08-08T19:11:32.575Z,24.10
2022-08-08T19:14:22.927Z,24.00
2022-08-08T19:17:10.791Z,23.90
2022-08-08T19:19:59.812Z,23.90
2022-08-08T19:22:50.436Z,23.80
2022-08-08T19:26:02.393Z,23.70
2022-08-08T19:28:45.435Z,23.60
2022-08-08T19:31:35.331Z,23.50
2022-08-08T19:34:36.105Z,23.40
2022-08-08T19:37:42.224Z,23.30
2022-08-08T19:40:32.730Z,23.10
2022-08-08T19:43:20.073Z,23.00
2022-08-08T19:46:09.995Z,22.90
2022-08-08T19:49:01.565Z,23.00
2022-08-08T19:51:50.116Z,22.80
2022-08-08T19:54:43.231Z,22.70
2022-08-08T19:57:30.822Z,22.60
2022-08-08T20:00:30.056Z,22.50
2022-08-08T20:04:00.305Z,22.40
2022-08-08T20:06:26.231Z,22.40
2022-08-08T20:09:13.073Z,22.30
2022-08-08T20:12:08.513Z,22.20
2022-08-08T20:14:56.995Z,22.20
2022-08-08T20:17:46.078Z,22.10
2022-08-08T20:20:33.173Z,22.00
2022-08-08T20:23:21.556Z,21.90
2022-08-08T20:26:08.995Z,21.90
2022-08-08T20:28:59.645Z,21.80
2022-08-08T20:32:06.826Z,21.80
2022-08-08T20:34:54.616Z,21.80
2022-08-08T20:37:57.496Z,21.70
2022-08-08T20:40:50.967Z,21.60
2022-08-08T20:43:47.911Z,21.60
2022-08-08T20:46:38.332Z,21.60
2022-08-08T20:49:39.663Z,21.50
2022-08-08T20:52:29.393Z,21.50
2022-08-08T20:55:25.942Z,21.50
2022-08-08T20:58:13.724Z,21.40
2022-08-08T21:01:01.396Z,21.40
2022-08-08T21:03:56.012Z,21.30
2022-08-08T21:06:53.032Z,21.40
2022-08-08T21:10:01.611Z,21.20
2022-08-08T21:12:48.492Z,21.10
2022-08-08T21:16:04.910Z,21.00
2022-08-08T21:18:50.331Z,21.00
2022-08-08T21:21:39.737Z,20.90
2022-08-08T21:24:30.543Z,20.80
2022-08-08T21:28:06.397Z,20.90
2022-08-08T21:33:17.029Z,21.00
2022-08-08T21:36:20.215Z,20.60
2022-08-08T21:39:08.200Z,20.60
2022-08-08T21:41:59.132Z,20.50
2022-08-08T21:44:59.049Z,20.40
2022-08-08T21:48:01.347Z,20.40
2022-08-08T21:50:55.888Z,20.30
2022-08-08T21:54:31.287Z,20.30
2022-08-08T21:56:54.289Z,20.30
2022-08-08T22:00:01.938Z,20.20
2022-08-08T22:02:49.338Z,20.10
2022-08-08T22:05:37.610Z,20.00
2022-08-08T22:26:27.286Z,19.60
2022-08-08T22:29:57.015Z,19.60
2022-08-08T22:32:19.506Z,19.50
2022-08-08T22:35:09.157Z,19.40
2022-08-08T22:38:00.064Z,19.40
2022-08-08T22:40:48.314Z,19.30
2022-08-08T22:43:39.406Z,19.20
2022-08-08T22:46:45.782Z,19.20
2022-08-08T22:49:33.009Z,19.10
2022-08-08T22:52:26.088Z,19.10
2022-08-08T22:55:20.661Z,19.00
2022-08-08T22:58:10.212Z,19.00
2022-08-08T23:00:59.869Z,18.90
2022-08-08T23:03:53.518Z,18.90
2022-08-08T23:06:42.325Z,18.90
2022-08-08T23:09:39.478Z,18.80
2022-08-08T23:12:41.624Z,18.70
2022-08-08T23:16:39.934Z,18.70
2022-08-08T23:18:36.245Z,18.70
2022-08-08T23:21:27.879Z,18.60
2022-08-08T23:24:22.693Z,18.50
2022-08-08T23:27:17.308Z,18.50
2022-08-08T23:30:19.906Z,18.60
2022-08-08T23:48:59.930Z,18.40
2022-08-08T23:50:34.257Z,18.20
2022-08-08T23:53:55.696Z,18.10
2022-08-08T23:56:32.409Z,18.00
2022-08-08T23:59:21.755Z,18.00
